Lloyd Neck, New York
Current Conditions -  °F | °C
As of 8:53 PM on Wednesday 22 Oct 2014 (Local Time) from KFRG Reporting Station
Light Rain Light Rain  
Wind Chill: 53°   Ceiling: 1800
Heat Index: 53°   Visibility: 10mi
Dew Point: 48°   Wind: 22mph
Humidity: 83%   Direction: 20°NNE
Pressure: 29.72"   Gusts: 31mph
Location:  40.8966°N, 73.4362°W
Report Text: KFRG 230053Z 02019G27KT 10SM -RA OVC018 12/09 A2972 RMK AO2 PK WND 01032/0026 SLP063 P0002 T01170089
Loading
Personal Weather Stations






























Interactive Weather Map
Tropical Storm Tracking
New forecast layout! Learn more

10-Day Weather Forecast

Advertisements
Track Severe Weather on mobile